Time;durP1;ratioP1;P1;durP2;ratioP2;P2;SDS_P1;SDS_P2;PMS_P1;PMS_P2;Temp;Humidity;BMP_temperature;BMP_pressure;BME280_temperature;BME280_humidity;BME280_pressure;Samples;Min_cycle;Max_cycle;Signal;HPM_P1;HPM_P2
2023/02/15 00:01:30;;;;;;;0.00;0.00;;;11.10;93.70;;;;;;5045605;28;20366;-76
2023/02/15 00:03:55;;;;;;;;;;;11.00;93.70;;;;;;5045942;28;20025;-76
2023/02/15 00:06:22;;;;;;;0.00;0.00;;;11.00;93.70;;;;;;5045770;28;19911;-76
2023/02/15 00:08:48;;;;;;;0.00;0.00;;;11.10;93.70;;;;;;5047014;28;20033;-76
2023/02/15 00:11:16;;;;;;;0.00;0.00;;;11.10;93.70;;;;;;5047018;28;20026;-76
2023/02/15 00:13:43;;;;;;;0.00;0.00;;;11.00;93.70;;;;;;5046982;28;20040;-76
2023/02/15 00:16:12;;;;;;;;;;;11.00;93.70;;;;;;5046253;28;20025;-76
2023/02/15 00:18:39;;;;;;;0.00;0.00;;;11.10;93.70;;;;;;5045381;28;19912;-77
2023/02/15 00:21:09;;;;;;;0.00;0.00;;;11.00;93.60;;;;;;5046826;28;20034;-76
2023/02/15 00:23:36;;;;;;;0.00;0.00;;;11.10;93.70;;;;;;5045534;28;20044;-76
2023/02/15 00:26:08;;;;;;;0.00;0.00;;;11.10;93.70;;;;;;5045612;28;20049;-76
2023/02/15 00:28:34;;;;;;;0.00;0.00;;;11.10;93.70;;;;;;5046849;28;20028;-76
2023/02/15 00:31:11;;;;;;;0.00;0.00;;;11.10;93.70;;;;;;5045742;28;20388;-76
2023/02/15 00:33:38;;;;;;;0.00;0.00;;;11.10;93.70;;;;;;5046792;28;20108;-76
2023/02/15 00:36:05;;;;;;;0.38;0.38;;;11.10;93.60;;;;;;5045483;28;20038;-76
2023/02/15 00:38:32;;;;;;;0.00;0.00;;;11.00;93.60;;;;;;5047491;28;20054;-76
2023/02/15 00:40:58;;;;;;;;;;;11.10;93.70;;;;;;5049544;28;20033;-76
2023/02/15 00:43:26;;;;;;;0.00;0.00;;;11.10;93.70;;;;;;5049072;28;19904;-77
2023/02/15 00:45:52;;;;;;;0.00;0.00;;;11.10;93.60;;;;;;5049103;28;20039;-76
2023/02/15 00:48:18;;;;;;;0.00;0.00;;;11.00;93.60;;;;;;5050345;28;20394;-76
2023/02/15 00:50:50;;;;;;;0.00;0.00;;;11.00;93.60;;;;;;5050182;28;20300;-76
2023/02/15 00:53:16;;;;;;;0.13;0.10;;;11.00;93.60;;;;;;5048930;28;20061;-76
2023/02/15 00:55:42;;;;;;;0.00;0.00;;;11.10;93.70;;;;;;5049090;28;20052;-76
2023/02/15 00:58:09;;;;;;;0.00;0.00;;;11.10;93.70;;;;;;5050157;28;20159;-76
2023/02/15 01:00:35;;;;;;;0.00;0.00;;;11.10;93.70;;;;;;5050157;28;20013;-76
2023/02/15 01:03:01;;;;;;;0.00;0.00;;;11.10;93.70;;;;;;5048862;28;20033;-76
2023/02/15 01:05:29;;;;;;;0.00;0.00;;;11.10;93.60;;;;;;5049934;28;20032;-76
2023/02/15 01:07:55;;;;;;;0.00;0.00;;;11.10;93.60;;;;;;5032273;28;20086;-76
2023/02/15 01:10:21;;;;;;;0.00;0.00;;;11.10;93.60;;;;;;5048568;28;20029;-76
2023/02/15 01:12:47;;;;;;;0.00;0.00;;;11.10;93.60;;;;;;5048684;28;20417;-76
2023/02/15 01:15:12;;;;;;;0.00;0.00;;;11.10;93.60;;;;;;5049975;28;20394;-76
2023/02/15 01:17:38;;;;;;;0.00;0.00;;;11.10;93.60;;;;;;5049787;28;20040;-76
2023/02/15 01:20:05;;;;;;;0.00;0.00;;;11.10;93.60;;;;;;5049670;28;20029;-76
2023/02/15 01:22:31;;;;;;;0.00;0.00;;;11.10;93.60;;;;;;5049891;28;20473;-76
2023/02/15 01:24:56;;;;;;;0.00;0.00;;;11.10;93.60;;;;;;5049761;28;20040;-77
2023/02/15 01:27:22;;;;;;;0.00;0.00;;;11.10;93.60;;;;;;5048363;28;20111;-76
2023/02/15 01:29:48;;;;;;;0.00;0.00;;;11.10;93.70;;;;;;5031791;28;20040;-77
2023/02/15 01:32:13;;;;;;;0.00;0.00;;;11.10;93.70;;;;;;5049651;28;20061;-76
2023/02/15 01:34:39;;;;;;;0.00;0.00;;;11.10;93.60;;;;;;5048239;28;20032;-76
2023/02/15 01:37:05;;;;;;;0.00;0.00;;;11.10;93.60;;;;;;5048311;28;20033;-76
2023/02/15 01:39:30;;;;;;;0.00;0.00;;;11.10;93.60;;;;;;5049502;28;20470;-76
2023/02/15 01:41:56;;;;;;;0.00;0.00;;;11.10;93.80;;;;;;5048214;28;20025;-76
2023/02/15 01:44:49;;;;;;;0.00;0.00;;;11.10;93.60;;;;;;5048090;28;20098;-76
2023/02/15 01:47:29;;;;;;;0.00;0.00;;;11.00;93.60;;;;;;5047971;28;20123;-76
2023/02/15 01:50:15;;;;;;;0.00;0.00;;;11.00;93.60;;;;;;5048360;28;20032;-76
2023/02/15 01:52:58;;;;;;;0.00;0.00;;;10.90;93.60;;;;;;5049482;28;20029;-76
2023/02/15 01:55:28;;;;;;;0.00;0.00;;;10.90;93.50;;;;;;5047840;28;20485;-76
2023/02/15 01:57:54;;;;;;;0.00;0.00;;;10.80;93.60;;;;;;5049053;28;20045;-76
2023/02/15 02:00:21;;;;;;;0.00;0.00;;;10.90;93.60;;;;;;5048851;28;20029;-76
2023/02/15 02:02:49;;;;;;;0.00;0.00;;;10.80;93.60;;;;;;5049064;28;20053;-76
2023/02/15 02:05:14;;;;;;;0.00;0.00;;;10.80;93.60;;;;;;5047703;28;20033;-76
2023/02/15 02:07:45;;;;;;;0.00;0.00;;;10.80;93.60;;;;;;5048953;28;20041;-76
2023/02/15 02:10:15;;;;;;;0.00;0.00;;;10.80;93.60;;;;;;5047437;28;20024;-76
2023/02/15 02:12:43;;;;;;;0.00;0.00;;;10.80;93.60;;;;;;5049096;28;20104;-76
2023/02/15 02:15:10;;;;;;;0.00;0.00;;;10.80;93.60;;;;;;5047244;28;20025;-76
2023/02/15 02:17:48;;;;;;;0.00;0.00;;;10.80;93.60;;;;;;5048768;28;20551;-76
2023/02/15 02:20:28;;;;;;;0.00;0.00;;;10.80;93.60;;;;;;5047142;28;20029;-76
2023/02/15 02:23:06;;;;;;;1.98;0.52;;;10.80;93.60;;;;;;5047362;28;20021;-76
2023/02/15 02:25:37;;;;;;;0.00;0.00;;;10.70;93.60;;;;;;5047310;28;20078;-76
2023/02/15 02:28:03;;;;;;;0.00;0.00;;;10.70;93.60;;;;;;5048535;28;20013;-76
2023/02/15 02:30:53;;;;;;;0.00;0.00;;;10.70;93.60;;;;;;5047069;28;20055;-76
2023/02/15 02:33:48;;;;;;;0.00;0.00;;;10.70;93.60;;;;;;5047031;28;20036;-76
2023/02/15 02:36:49;;;;;;;0.00;0.00;;;10.70;93.60;;;;;;5048381;28;20075;-76
2023/02/15 02:39:25;;;;;;;0.00;0.00;;;10.70;93.80;;;;;;5048191;28;20100;-76
2023/02/15 02:42:29;;;;;;;0.00;0.00;;;10.80;93.80;;;;;;5048319;28;20021;-76
2023/02/15 02:45:05;;;;;;;0.00;0.00;;;10.80;93.60;;;;;;5045464;28;20029;-76
2023/02/15 02:47:39;;;;;;;0.00;0.00;;;10.80;93.60;;;;;;5047741;28;20044;-76
2023/02/15 02:50:13;;;;;;;0.00;0.00;;;10.80;93.60;;;;;;5048110;28;20040;-76
2023/02/15 02:52:45;;;;;;;0.00;0.00;;;10.80;93.60;;;;;;5046794;28;20025;-76
2023/02/15 02:55:31;;;;;;;0.63;0.35;;;10.80;93.60;;;;;;5046802;28;20025;-76
2023/02/15 02:58:15;;;;;;;0.00;0.00;;;10.80;93.60;;;;;;5047941;28;20048;-76
2023/02/15 03:01:07;;;;;;;0.10;0.10;;;10.80;93.60;;;;;;5047769;28;20387;-76
2023/02/15 03:03:41;;;;;;;0.20;0.20;;;10.80;93.60;;;;;;5047897;28;20040;-76
2023/02/15 03:06:27;;;;;;;0.20;0.20;;;10.70;93.60;;;;;;5047978;28;20025;-76
2023/02/15 03:09:18;;;;;;;0.20;0.20;;;10.80;93.60;;;;;;5047855;28;20112;-76
2023/02/15 03:11:44;;;;;;;0.20;0.20;;;10.80;93.60;;;;;;5047735;28;20033;-76
2023/02/15 03:14:12;;;;;;;0.30;0.30;;;10.80;93.60;;;;;;5046328;28;20217;-76
2023/02/15 03:16:41;;;;;;;0.40;0.40;;;10.80;93.60;;;;;;5046417;28;20017;-76
2023/02/15 03:19:18;;;;;;;0.98;0.80;;;10.80;93.60;;;;;;5047711;28;20048;-76
2023/02/15 03:21:57;;;;;;;0.60;0.60;;;10.80;93.60;;;;;;5047908;28;20112;-76
2023/02/15 03:24:29;;;;;;;0.80;0.80;;;10.80;93.60;;;;;;5046211;28;20036;-76
2023/02/15 03:26:56;;;;;;;1.00;1.00;;;10.80;93.60;;;;;;5047603;28;20078;-76
2023/02/15 03:29:25;;;;;;;1.00;1.00;;;10.80;93.70;;;;;;5047426;28;20057;-76
2023/02/15 03:31:59;;;;;;;1.10;1.10;;;10.80;93.70;;;;;;5046287;28;20025;-76
2023/02/15 03:34:25;;;;;;;1.10;1.10;;;10.80;93.70;;;;;;5046077;28;20033;-76
2023/02/15 03:37:06;;;;;;;1.30;1.20;;;10.80;93.70;;;;;;5047429;28;20025;-76
2023/02/15 03:39:44;;;;;;;1.30;1.20;;;10.90;93.70;;;;;;5046080;28;20025;-76
2023/02/15 03:42:17;;;;;;;1.50;1.40;;;10.90;93.70;;;;;;5047543;28;20021;-76
2023/02/15 03:44:58;;;;;;;1.42;1.33;;;10.90;93.70;;;;;;5047367;28;20102;-76
2023/02/15 03:47:32;;;;;;;1.80;1.70;;;10.90;93.70;;;;;;5047414;28;20040;-76
2023/02/15 03:53:01;;;;;;;2.80;2.60;;;11.00;93.70;;;;;;5047636;28;20049;-76
2023/02/15 03:55:28;;;;;;;3.50;3.20;;;10.90;93.60;;;;;;5045769;28;20029;-76
2023/02/15 04:03:39;;;;;;;5.20;4.90;;;11.00;93.60;;;;;;5047105;28;20067;-76
2023/02/15 04:06:05;;;;;;;6.18;5.85;;;10.90;93.60;;;;;;5045867;28;20083;-76
2023/02/15 04:11:16;;;;;;;7.85;7.45;;;10.90;93.60;;;;;;5047242;28;20044;-76
2023/02/15 04:13:42;;;;;;;9.10;8.70;;;10.90;93.60;;;;;;5047924;28;20115;-76
2023/02/15 04:16:08;;;;;;;10.45;9.95;;;10.90;93.60;;;;;;5051034;28;20029;-76
2023/02/15 04:26:58;;;;;;;14.70;14.10;;;10.90;93.70;;;;;;5049938;28;20064;-76
2023/02/15 04:29:25;;;;;;;17.48;16.77;;;10.90;93.80;;;;;;5049343;28;20462;-76
2023/02/15 04:31:52;;;;;;;18.90;18.10;;;11.00;93.70;;;;;;5050614;28;20421;-76
2023/02/15 04:34:18;;;;;;;21.67;20.77;;;11.00;93.70;;;;;;5050572;28;20025;-76
2023/02/15 04:36:44;;;;;;;23.70;22.80;;;11.00;93.70;;;;;;5050877;28;20029;-76
2023/02/15 04:39:13;;;;;;;25.85;24.85;;;11.00;93.70;;;;;;5050555;28;20032;-76
2023/02/15 04:41:38;;;;;;;28.33;27.23;;;11.00;93.70;;;;;;5050613;28;20196;-76
2023/02/15 04:44:04;;;;;;;31.25;30.05;;;11.10;93.70;;;;;;5050508;28;20040;-76
2023/02/15 04:46:30;;;;;;;38.25;36.85;;;11.10;93.70;;;;;;5032458;28;20029;-76
2023/02/15 04:48:56;;;;;;;43.45;41.85;;;11.10;93.70;;;;;;5049019;28;20549;-76
2023/02/15 04:51:22;;;;;;;;;;;11.10;93.70;;;;;;5050901;28;20104;-76
2023/02/15 04:53:48;;;;;;;61.38;59.17;;;11.10;93.70;;;;;;5050173;28;20376;-76
2023/02/15 04:56:14;;;;;;;70.65;68.15;;;11.00;93.40;;;;;;5050148;28;20473;-76
2023/02/15 04:58:42;;;;;;;74.07;71.47;;;10.70;93.00;;;;;;5048783;28;20045;-76
2023/02/15 05:01:09;;;;;;;84.85;81.85;;;10.30;92.80;;;;;;5048747;28;20057;-77
2023/02/15 05:03:35;;;;;;;90.55;87.35;;;9.90;92.90;;;;;;5048690;28;20466;-77
2023/02/15 05:06:01;;;;;;;;;;;9.60;93.00;;;;;;5050345;28;20412;-77
2023/02/15 05:08:26;;;;;;;98.15;94.65;;;9.40;93.10;;;;;;5048820;28;19917;-77
2023/02/15 05:10:52;;;;;;;101.30;97.60;;;9.20;93.10;;;;;;5049839;28;20033;-77
2023/02/15 05:13:18;;;;;;;103.80;99.90;;;9.10;93.20;;;;;;5032164;28;20432;-77
2023/02/15 05:15:51;;;;;;;105.30;101.40;;;9.00;93.30;;;;;;5048596;28;20539;-77
2023/02/15 05:18:18;;;;;;;110.75;106.65;;;8.90;93.30;;;;;;5048346;28;20041;-77
2023/02/15 05:20:44;;;;;;;110.80;106.70;;;8.80;93.30;;;;;;5048219;28;20128;-78
2023/02/15 05:23:10;;;;;;;110.25;106.13;;;8.80;93.30;;;;;;5049617;28;20117;-77
2023/02/15 05:28:22;;;;;;;112.75;108.50;;;8.70;93.30;;;;;;5049534;28;20541;-77
2023/02/15 05:30:48;;;;;;;115.85;111.45;;;8.70;93.20;;;;;;5048294;28;20067;-77
2023/02/15 05:33:14;;;;;;;113.32;109.03;;;8.70;93.20;;;;;;5049296;28;20028;-77
2023/02/15 05:35:40;;;;;;;115.78;111.38;;;8.60;93.20;;;;;;5048141;28;20110;-77
2023/02/15 05:38:06;;;;;;;110.65;106.45;;;8.60;93.20;;;;;;5049433;28;20025;-77
2023/02/15 05:40:32;;;;;;;110.60;106.40;;;8.60;93.20;;;;;;5049315;28;20057;-77
2023/02/15 05:42:58;;;;;;;118.93;114.43;;;8.60;93.20;;;;;;5049212;28;20271;-77
2023/02/15 05:45:24;;;;;;;113.97;109.68;;;8.60;93.20;;;;;;5049234;28;20474;-77
2023/02/15 05:47:49;;;;;;;118.30;113.80;;;8.60;93.20;;;;;;5031436;28;20064;-77
2023/02/15 05:50:15;;;;;;;118.78;114.25;;;8.70;93.20;;;;;;5049001;28;20025;-77
2023/02/15 05:52:41;;;;;;;116.53;112.05;;;8.70;93.20;;;;;;5049186;28;20068;-77
2023/02/15 05:55:08;;;;;;;115.10;110.70;;;8.60;93.20;;;;;;5049005;28;20409;-77
2023/02/15 05:57:35;;;;;;;115.22;110.82;;;8.70;93.20;;;;;;5049458;28;20478;-77
2023/02/15 06:00:04;;;;;;;120.05;115.43;;;8.70;93.20;;;;;;5048606;28;20097;-77
2023/02/15 06:02:32;;;;;;;117.53;113.03;;;8.70;93.20;;;;;;5048914;28;20013;-77
2023/02/15 06:04:58;;;;;;;115.57;111.18;;;8.70;93.20;;;;;;5047668;28;20503;-77
2023/02/15 06:07:24;;;;;;;120.10;115.50;;;8.60;93.10;;;;;;5048871;28;20029;-77
2023/02/15 06:09:50;;;;;;;118.15;113.57;;;8.60;93.10;;;;;;5047728;28;20031;-77
2023/02/15 06:12:16;;;;;;;118.57;113.97;;;8.70;93.20;;;;;;5030891;28;20069;-77
2023/02/15 06:14:41;;;;;;;120.30;115.63;;;8.70;93.20;;;;;;5048612;28;20126;-77
2023/02/15 06:17:07;;;;;;;120.07;115.38;;;8.60;93.10;;;;;;5047193;28;20131;-77
2023/02/15 06:19:32;;;;;;;122.03;117.28;;;8.70;93.20;;;;;;5030489;28;20044;-77
2023/02/15 06:21:58;;;;;;;120.82;116.13;;;8.70;93.20;;;;;;5014287;28;20033;-77
2023/02/15 06:24:24;;;;;;;121.78;117.05;;;8.70;93.10;;;;;;5048493;28;20043;-77
2023/02/15 06:26:50;;;;;;;123.18;118.38;;;8.70;93.10;;;;;;5047091;28;20419;-77
2023/02/15 06:29:15;;;;;;;122.00;117.22;;;8.70;93.10;;;;;;5046929;28;20037;-77
2023/02/15 06:31:41;;;;;;;127.30;122.32;;;8.60;93.10;;;;;;5046763;28;20033;-77
2023/02/15 06:34:08;;;;;;;123.75;118.95;;;8.60;93.10;;;;;;5047236;28;20049;-77
2023/02/15 06:36:34;;;;;;;122.18;117.45;;;8.60;93.10;;;;;;5047965;28;20243;-77
2023/02/15 06:38:59;;;;;;;123.95;119.15;;;8.50;93.10;;;;;;5046748;28;20096;-77
2023/02/15 06:41:25;;;;;;;122.82;118.03;;;8.50;93.10;;;;;;5048208;28;20033;-77
2023/02/15 06:43:51;;;;;;;122.28;117.50;;;8.50;93.10;;;;;;5048166;28;20040;-77
2023/02/15 06:46:17;;;;;;;122.25;117.47;;;8.50;93.10;;;;;;5048164;28;20037;-77
2023/02/15 06:48:42;;;;;;;121.65;116.88;;;8.50;93.20;;;;;;5047994;28;20512;-77
2023/02/15 06:51:08;;;;;;;125.45;120.55;;;8.50;93.20;;;;;;5046663;28;20040;-77
2023/02/15 06:53:35;;;;;;;126.82;121.82;;;8.50;93.20;;;;;;5046896;28;20048;-77
2023/02/15 06:56:06;;;;;;;126.43;121.45;;;8.50;93.10;;;;;;5048310;28;20086;-77
2023/02/15 06:58:32;;;;;;;127.72;122.72;;;8.50;93.10;;;;;;5046439;28;20049;-77
2023/02/15 07:00:58;;;;;;;127.05;122.05;;;8.50;93.10;;;;;;5046458;28;20036;-77
2023/02/15 07:03:24;;;;;;;126.68;121.68;;;8.50;93.20;;;;;;5047650;28;20021;-77
2023/02/15 07:05:58;;;;;;;125.57;120.65;;;8.50;93.20;;;;;;5030191;28;20115;-77
2023/02/15 07:08:25;;;;;;;122.72;117.88;;;8.50;93.20;;;;;;5047584;28;20363;-77
2023/02/15 07:10:51;;;;;;;124.40;119.53;;;8.50;93.20;;;;;;5047735;28;20390;-77
2023/02/15 07:13:18;;;;;;;121.15;116.38;;;8.50;93.20;;;;;;5046493;28;20048;-77
2023/02/15 07:15:45;;;;;;;122.45;117.65;;;8.50;93.20;;;;;;5047418;28;20048;-77
2023/02/15 07:18:10;;;;;;;121.00;116.25;;;8.60;93.20;;;;;;5047563;28;20033;-77
2023/02/15 07:20:37;;;;;;;119.97;115.22;;;8.60;93.20;;;;;;5048086;28;20037;-77
2023/02/15 07:23:04;;;;;;;116.45;111.75;;;8.50;93.20;;;;;;5047832;28;20033;-77
2023/02/15 07:25:30;;;;;;;124.07;119.07;;;8.50;93.20;;;;;;5046155;28;20033;-78
2023/02/15 07:28:02;;;;;;;124.47;119.47;;;8.40;93.30;;;;;;5045856;28;20041;-78
2023/02/15 07:30:28;;;;;;;124.07;119.07;;;8.40;93.30;;;;;;5047199;28;20485;-77
2023/02/15 07:35:47;;;;;;;124.18;119.25;;;8.30;93.30;;;;;;5047523;28;20280;-77
2023/02/15 07:38:13;;;;;;;122.80;117.90;;;8.20;93.30;;;;;;5047160;28;20051;-77
2023/02/15 07:40:38;;;;;;;124.78;119.78;;;8.20;93.30;;;;;;5045817;28;20040;-77
2023/02/15 07:43:04;;;;;;;122.70;117.75;;;8.20;93.30;;;;;;5047121;28;20076;-77
2023/02/15 07:45:30;;;;;;;121.38;116.47;;;8.10;93.40;;;;;;5047030;28;20033;-77
2023/02/15 07:47:55;;;;;;;119.65;114.85;;;8.10;93.40;;;;;;5030171;28;20050;-77
2023/02/15 07:50:21;;;;;;;122.25;117.35;;;8.20;93.50;;;;;;5051337;28;20052;-77
2023/02/15 07:52:47;;;;;;;121.88;116.97;;;8.20;93.40;;;;;;5049708;28;20473;-77
2023/02/15 07:55:13;;;;;;;117.18;112.47;;;8.20;93.40;;;;;;5049895;28;20082;-77
2023/02/15 07:57:44;;;;;;;121.78;116.95;;;8.30;93.30;;;;;;5050812;28;20565;-77
2023/02/15 08:00:11;;;;;;;121.00;116.20;;;8.30;93.30;;;;;;5050730;28;20021;-77
2023/02/15 08:02:37;;;;;;;120.25;115.45;;;8.30;93.30;;;;;;5049848;28;20029;-78
2023/02/15 08:05:03;;;;;;;117.68;112.97;;;8.30;93.30;;;;;;5051177;28;20029;-78
2023/02/15 08:07:28;;;;;;;118.47;113.78;;;8.30;93.30;;;;;;5032953;28;20033;-78
2023/02/15 08:09:54;;;;;;;116.47;111.88;;;8.40;93.30;;;;;;5049748;28;20036;-77
2023/02/15 08:12:20;;;;;;;115.93;111.35;;;8.40;93.30;;;;;;5051042;28;20040;-78
2023/02/15 08:14:45;;;;;;;115.40;110.85;;;8.40;93.30;;;;;;5049838;28;20036;-78
2023/02/15 08:17:11;;;;;;;113.40;108.90;;;8.40;93.30;;;;;;5051042;28;20376;-78
2023/02/15 08:19:37;;;;;;;112.25;107.75;;;8.40;93.30;;;;;;5049750;28;20025;-78
2023/02/15 08:22:05;;;;;;;113.65;109.15;;;8.50;93.30;;;;;;5050790;28;20451;-78
2023/02/15 08:24:39;;;;;;;108.22;103.82;;;8.50;93.30;;;;;;5050732;28;20053;-79
2023/02/15 08:27:06;;;;;;;100.65;96.65;;;8.60;93.30;;;;;;5033503;28;20512;-78
2023/02/15 08:29:33;;;;;;;99.10;95.15;;;8.60;93.30;;;;;;5050707;28;20069;-78
2023/02/15 08:32:04;;;;;;;103.07;99.07;;;8.60;93.30;;;;;;5050933;28;20025;-79
2023/02/15 08:34:36;;;;;;;101.20;97.20;;;8.60;93.30;;;;;;5049390;28;20021;-78
2023/02/15 08:37:02;;;;;;;103.40;99.30;;;8.60;93.20;;;;;;5049652;28;20025;-78
2023/02/15 08:39:28;;;;;;;101.68;97.68;;;8.60;93.30;;;;;;5049425;28;20025;-78
2023/02/15 08:41:54;;;;;;;101.85;97.85;;;8.60;93.20;;;;;;5049742;28;20484;-78
2023/02/15 08:44:20;;;;;;;101.13;97.13;;;8.60;93.50;;;;;;5050639;28;20036;-77
2023/02/15 08:46:47;;;;;;;100.15;96.18;;;8.50;93.20;;;;;;5050391;28;20106;-77
2023/02/15 08:49:17;;;;;;;98.95;95.05;;;8.50;93.30;;;;;;5049175;28;20021;-79
2023/02/15 08:51:43;;;;;;;98.00;94.20;;;8.40;93.30;;;;;;5050416;28;20029;-77
2023/02/15 08:54:13;;;;;;;99.18;95.38;;;8.40;93.30;;;;;;5048981;28;20476;-79
2023/02/15 08:56:40;;;;;;;94.53;90.82;;;8.40;93.30;;;;;;5050261;28;20515;-77
2023/02/15 08:59:12;;;;;;;93.88;90.18;;;8.30;93.30;;;;;;5049985;28;20067;-77
2023/02/15 09:01:37;;;;;;;89.93;86.43;;;8.30;93.30;;;;;;5050460;28;20025;-77
2023/02/15 09:04:08;;;;;;;81.38;78.18;;;8.30;93.40;;;;;;5015957;28;20682;-77
2023/02/15 09:06:34;;;;;;;73.75;70.85;;;8.40;93.60;;;;;;5032995;28;20037;-77
2023/02/15 09:09:00;;;;;;;;;;;8.60;94.00;;;;;;5049411;28;20036;-77
2023/02/15 09:11:32;;;;;;;45.67;43.95;;;9.10;94.40;;;;;;5048894;28;20345;-77
2023/02/15 09:14:04;;;;;;;50.78;48.88;;;10.10;94.90;;;;;;5050185;28;20032;-76
2023/02/15 09:16:31;;;;;;;54.28;52.22;;;10.70;94.20;;;;;;5048433;28;20021;-78
2023/02/15 09:18:57;;;;;;;56.20;54.10;;;11.00;93.70;;;;;;5049897;28;20064;-78
2023/02/15 09:21:24;;;;;;;58.40;56.20;;;10.90;93.40;;;;;;5049022;28;20049;-77
2023/02/15 09:23:55;;;;;;;61.47;59.17;;;10.80;93.40;;;;;;5049753;28;20033;-78
2023/02/15 09:26:22;;;;;;;56.92;54.80;;;10.70;93.30;;;;;;5048712;28;20040;-77
2023/02/15 09:28:51;;;;;;;49.20;47.30;;;10.50;93.30;;;;;;5048571;28;20094;-77
2023/02/15 09:31:23;;;;;;;29.63;28.52;;;10.40;93.60;;;;;;5049846;28;20082;-76
2023/02/15 09:33:49;;;;;;;21.85;20.95;;;11.00;94.90;;;;;;5049967;28;20120;-78
2023/02/15 09:36:16;;;;;;;20.38;19.58;;;12.00;95.30;;;;;;5048330;28;20078;-78
2023/02/15 09:38:43;;;;;;;15.68;14.98;;;13.10;95.40;;;;;;5048917;28;20032;-78
2023/02/15 09:41:08;;;;;;;12.75;12.15;;;14.30;95.30;;;;;;5050009;28;20385;-79
2023/02/15 09:43:55;;;;;;;5.90;5.60;;;15.20;95.00;;;;;;5049543;28;20029;-79
2023/02/15 09:46:28;;;;;;;3.53;3.22;;;15.90;94.60;;;;;;5049477;28;20029;-79
2023/02/15 09:49:05;;;;;;;2.72;2.53;;;16.40;94.30;;;;;;5048123;28;20025;-79
2023/02/15 09:51:51;;;;;;;1.40;1.30;;;16.70;94.20;;;;;;5049668;28;20496;-78
2023/02/15 09:54:32;;;;;;;0.80;0.80;;;17.10;94.20;;;;;;5047922;28;20036;-78
2023/02/15 09:57:04;;;;;;;0.52;0.52;;;17.30;94.30;;;;;;5048980;28;20389;-78
2023/02/15 09:59:52;;;;;;;0.22;0.22;;;17.80;94.40;;;;;;5047423;28;20093;-78
2023/02/15 10:02:49;;;;;;;0.10;0.10;;;18.10;94.10;;;;;;5011393;28;20465;-79
2023/02/15 10:05:35;;;;;;;0.20;0.20;;;18.40;94.00;;;;;;5013281;28;20036;-81
2023/02/15 10:08:01;;;;;;;0.10;0.10;;;18.50;94.20;;;;;;5013058;28;20018;-80
2023/02/15 10:10:44;;;;;;;;;;;18.80;94.50;;;;;;5013989;28;20026;-81
2023/02/15 10:13:26;;;;;;;0.10;0.10;;;19.00;94.40;;;;;;5013953;28;19955;-80
2023/02/15 10:16:10;;;;;;;0.10;0.10;;;19.20;94.30;;;;;;5014295;28;20140;-82
2023/02/15 10:18:54;;;;;;;0.05;0.05;;;19.30;94.30;;;;;;5016059;28;20049;-81
2023/02/15 10:21:32;;;;;;;0.08;0.08;;;19.50;94.30;;;;;;5014620;28;20088;-86
2023/02/15 10:24:17;;;;;;;0.00;0.00;;;19.50;94.20;;;;;;5047879;28;20025;-88
2023/02/15 10:26:45;;;;;;;0.00;0.00;;;19.70;94.30;;;;;;5052241;28;20033;-86
2023/02/15 10:29:32;;;;;;;0.00;0.00;;;19.50;94.00;;;;;;5054519;28;20442;-85
2023/02/15 10:32:04;;;;;;;0.00;0.00;;;19.20;93.90;;;;;;5053753;28;20052;-86
2023/02/15 10:34:46;;;;;;;0.00;0.00;;;19.10;94.30;;;;;;5031520;28;20022;-87
2023/02/15 10:37:33;;;;;;;0.00;0.00;;;18.90;93.90;;;;;;5016858;28;20092;-85
2023/02/15 10:40:14;;;;;;;;;;;18.30;93.70;;;;;;5050056;28;20028;-86
2023/02/15 10:42:40;;;;;;;0.00;0.00;;;18.00;94.20;;;;;;5052559;28;19923;-84
2023/02/15 10:45:29;;;;;;;0.00;0.00;;;18.10;94.40;;;;;;5050842;28;20382;-85
2023/02/15 10:48:15;;;;;;;0.00;0.00;;;17.90;93.90;;;;;;5044993;28;20025;-87
2023/02/15 10:50:43;;;;;;;0.00;0.00;;;17.60;93.90;;;;;;5031692;28;20041;-80
2023/02/15 10:53:28;;;;;;;0.00;0.00;;;17.20;93.80;;;;;;5035760;28;20071;-80
2023/02/15 10:56:07;;;;;;;0.00;0.00;;;16.70;93.70;;;;;;5041976;28;20025;-81
2023/02/15 10:58:59;;;;;;;0.10;0.10;;;16.20;93.60;;;;;;5048415;28;20045;-79
2023/02/15 11:01:35;;;;;;;0.30;0.30;;;15.60;93.50;;;;;;5049179;28;20017;-80
2023/02/15 11:04:17;;;;;;;0.20;0.20;;;15.20;93.80;;;;;;5050597;28;20099;-79
2023/02/15 11:06:53;;;;;;;0.20;0.20;;;15.00;94.00;;;;;;5051468;28;20091;-80
2023/02/15 11:09:22;;;;;;;0.30;0.30;;;14.70;93.80;;;;;;5048944;28;20422;-71
2023/02/15 11:11:55;;;;;;;0.30;0.30;;;14.50;93.90;;;;;;5049741;28;20489;-78
2023/02/15 11:14:31;;;;;;;0.40;0.40;;;14.40;94.00;;;;;;5048904;28;20028;-81
2023/02/15 11:17:02;;;;;;;0.40;0.40;;;14.30;94.00;;;;;;5052603;28;20029;-79
2023/02/15 11:19:34;;;;;;;0.40;0.40;;;14.20;94.00;;;;;;5054606;28;20040;-82
2023/02/15 11:22:04;;;;;;;0.30;0.30;;;14.20;94.10;;;;;;5050094;28;20025;-76
2023/02/15 11:24:35;;;;;;;0.20;0.20;;;14.20;94.10;;;;;;5049506;28;20025;-81
2023/02/15 11:27:04;;;;;;;0.25;0.25;;;14.30;94.10;;;;;;5031509;28;20022;-86
2023/02/15 11:29:46;;;;;;;0.30;0.30;;;14.30;94.00;;;;;;5032446;28;20454;-76
2023/02/15 11:32:29;;;;;;;0.50;0.50;;;14.20;93.80;;;;;;5030037;28;20017;-80
2023/02/15 11:35:10;;;;;;;0.40;0.40;;;14.10;93.80;;;;;;5029876;28;20029;-79
2023/02/15 11:37:58;;;;;;;0.40;0.40;;;14.00;93.90;;;;;;5028741;28;20030;-77
2023/02/15 11:40:42;;;;;;;0.40;0.40;;;13.90;93.80;;;;;;5030012;28;20104;-75
2023/02/15 11:43:36;;;;;;;0.20;0.20;;;13.90;94.00;;;;;;5028230;28;20117;-80
2023/02/15 11:46:03;;;;;;;0.20;0.20;;;14.00;93.90;;;;;;5030845;28;20022;-81
2023/02/15 11:48:31;;;;;;;0.20;0.20;;;13.90;93.90;;;;;;5031654;28;20026;-82
2023/02/15 11:50:57;;;;;;;0.20;0.20;;;14.00;94.20;;;;;;5034232;28;20026;-80
2023/02/15 11:53:27;;;;;;;0.10;0.10;;;14.40;94.60;;;;;;5036230;28;20029;-81
2023/02/15 11:55:54;;;;;;;0.10;0.10;;;15.00;94.80;;;;;;5030539;28;20422;-77
2023/02/15 11:58:33;;;;;;;0.05;0.05;;;15.40;94.40;;;;;;5028525;28;20181;-78
2023/02/15 12:01:30;;;;;;;0.00;0.00;;;15.70;94.30;;;;;;5031434;28;20137;-81
2023/02/15 12:04:11;;;;;;;0.03;0.03;;;15.70;93.80;;;;;;5048493;28;20033;-84
2023/02/15 12:06:46;;;;;;;0.10;0.10;;;15.40;93.70;;;;;;5056009;28;20136;-81
2023/02/15 12:09:31;;;;;;;0.10;0.10;;;15.10;93.60;;;;;;5042295;28;20040;-82
2023/02/15 12:12:19;;;;;;;0.10;0.10;;;14.80;93.70;;;;;;5035715;28;20099;-84
2023/02/15 12:14:52;;;;;;;0.10;0.10;;;14.60;93.70;;;;;;5016162;28;20028;-81
2023/02/15 12:17:21;;;;;;;0.10;0.10;;;14.40;93.90;;;;;;5032608;28;20104;-83
2023/02/15 12:19:50;;;;;;;0.00;0.00;;;14.40;94.10;;;;;;5036387;28;20060;-77
2023/02/15 12:22:27;;;;;;;0.00;0.00;;;14.40;93.90;;;;;;5049254;28;20025;-80
2023/02/15 12:24:54;;;;;;;;;;;14.30;93.90;;;;;;5051384;28;20025;-80
2023/02/15 12:27:42;;;;;;;0.00;0.00;;;14.20;93.80;;;;;;5052520;28;20301;-77
2023/02/15 12:30:25;;;;;;;0.05;0.05;;;14.00;93.70;;;;;;5049831;28;20130;-81
2023/02/15 12:32:54;;;;;;;0.10;0.10;;;13.90;94.00;;;;;;5049852;28;20029;-82
2023/02/15 12:35:35;;;;;;;0.08;0.08;;;13.80;93.70;;;;;;5055369;28;20104;-81
2023/02/15 12:38:10;;;;;;;0.00;0.00;;;13.70;93.70;;;;;;5056543;28;20025;-81
2023/02/15 12:40:37;;;;;;;0.00;0.00;;;13.50;93.60;;;;;;5053940;28;20032;-87
2023/02/15 12:43:08;;;;;;;0.08;0.08;;;13.40;93.70;;;;;;5052579;28;20029;-83
2023/02/15 12:45:36;;;;;;;0.10;0.10;;;13.30;93.80;;;;;;5056585;28;20028;-80
2023/02/15 12:48:18;;;;;;;0.10;0.10;;;13.30;94.00;;;;;;5052498;28;20029;-77
2023/02/15 12:51:08;;;;;;;0.00;0.00;;;13.70;94.50;;;;;;5050790;28;20508;-80
2023/02/15 12:53:35;;;;;;;0.00;0.00;;;14.20;94.40;;;;;;5053157;28;20032;-76
2023/02/15 12:56:07;;;;;;;0.00;0.00;;;14.30;94.10;;;;;;5052533;28;20364;-80
2023/02/15 12:58:38;;;;;;;0.10;0.10;;;14.70;94.60;;;;;;5052105;28;20112;-80
2023/02/15 13:01:17;;;;;;;0.00;0.00;;;15.20;94.80;;;;;;5050622;28;20698;-74
2023/02/15 13:03:59;;;;;;;0.00;0.00;;;15.70;94.90;;;;;;5052661;28;20082;-76
2023/02/15 13:06:27;;;;;;;0.00;0.00;;;16.10;94.70;;;;;;5052013;28;20013;-76
2023/02/15 13:09:29;;;;;;;0.00;0.00;;;16.30;94.60;;;;;;5051557;28;20069;-75
2023/02/15 13:11:56;;;;;;;0.00;0.00;;;16.30;94.00;;;;;;5050219;28;20039;-76
2023/02/15 13:14:31;;;;;;;0.00;0.00;;;15.90;93.90;;;;;;5051796;28;20501;-76
2023/02/15 13:17:02;;;;;;;0.00;0.00;;;15.50;93.70;;;;;;5051875;28;20562;-81
2023/02/15 13:19:36;;;;;;;0.00;0.00;;;15.20;93.80;;;;;;5050390;28;20108;-81
2023/02/15 13:22:08;;;;;;;0.00;0.00;;;14.90;93.70;;;;;;5051417;28;20049;-78
2023/02/15 13:24:39;;;;;;;0.00;0.00;;;14.60;93.90;;;;;;5051283;28;20727;-83